createdAt,value
2018-01-10T00:00:07.233Z,2.10
2018-01-10T00:02:49.646Z,2.07
2018-01-10T00:05:32.407Z,1.80
2018-01-10T00:08:14.998Z,2.13
2018-01-10T00:10:57.779Z,2.27
2018-01-10T00:13:40.698Z,2.03
2018-01-10T00:16:23.155Z,2.00
2018-01-10T00:19:05.829Z,2.03
2018-01-10T00:21:49.294Z,2.03
2018-01-10T00:24:32.214Z,1.70
2018-01-10T00:27:15.642Z,1.80
2018-01-10T00:29:58.630Z,1.90
2018-01-10T00:32:41.179Z,1.80
2018-01-10T00:35:28.615Z,2.10
2018-01-10T00:38:11.594Z,1.70
2018-01-10T00:41:06.241Z,1.80
2018-01-10T00:43:48.877Z,1.73
2018-01-10T00:46:31.513Z,1.87
2018-01-10T00:49:14.126Z,1.73
2018-01-10T00:51:56.804Z,2.00
2018-01-10T00:54:39.533Z,1.90
2018-01-10T00:57:22.064Z,2.20
2018-01-10T01:00:04.816Z,1.80
2018-01-10T01:02:47.473Z,1.87
2018-01-10T01:05:30.197Z,1.70
2018-01-10T01:08:12.826Z,1.70
2018-01-10T01:10:55.697Z,2.00
2018-01-10T01:13:38.387Z,1.90
2018-01-10T01:16:21.364Z,2.10
2018-01-10T01:19:16.352Z,2.33
2018-01-10T01:21:59.221Z,1.80
2018-01-10T01:24:42.893Z,1.87
2018-01-10T01:27:25.758Z,1.80
2018-01-10T01:30:08.389Z,1.90
2018-01-10T01:32:58.719Z,1.63
2018-01-10T01:35:41.506Z,1.77
2018-01-10T01:38:24.271Z,1.40
2018-01-10T01:41:06.914Z,1.83
2018-01-10T01:43:49.793Z,1.53
2018-01-10T01:46:32.516Z,1.73
2018-01-10T01:49:14.984Z,2.03
2018-01-10T01:51:57.723Z,2.10
2018-01-10T01:54:46.786Z,1.80
2018-01-10T01:57:29.788Z,1.63
2018-01-10T02:00:13.341Z,1.77
2018-01-10T02:02:56.556Z,1.50
2018-01-10T02:05:38.967Z,1.70
2018-01-10T02:08:21.662Z,1.30
2018-01-10T02:11:04.507Z,1.70
2018-01-10T02:13:47.165Z,1.23
2018-01-10T02:16:29.813Z,1.60
2018-01-10T02:19:25.591Z,1.27
2018-01-10T02:22:08.127Z,1.53
2018-01-10T02:24:57.306Z,1.40
2018-01-10T02:27:40.238Z,1.40
2018-01-10T02:30:24.538Z,1.70
2018-01-10T02:33:07.478Z,1.33
2018-01-10T02:35:50.322Z,1.60
2018-01-10T02:38:39.459Z,1.50
2018-01-10T02:41:23.095Z,1.40
2018-01-10T02:44:12.915Z,1.80
2018-01-10T02:46:55.418Z,1.50
2018-01-10T02:49:38.075Z,1.63
2018-01-10T02:52:28.373Z,1.40
2018-01-10T02:55:11.283Z,1.53
2018-01-10T02:57:53.810Z,1.60
2018-01-10T03:00:37.227Z,1.57
2018-01-10T03:03:26.880Z,1.77
2018-01-10T03:06:09.018Z,2.07
2018-01-10T03:08:51.722Z,1.87
2018-01-10T03:11:36.192Z,1.80
2018-01-10T03:14:19.342Z,1.67
2018-01-10T03:17:01.712Z,1.70
2018-01-10T03:19:50.822Z,1.50
2018-01-10T03:22:33.197Z,1.73
2018-01-10T03:25:15.878Z,1.80
2018-01-10T03:27:59.572Z,1.33
2018-01-10T03:30:42.372Z,1.23
2018-01-10T03:33:25.423Z,1.60
2018-01-10T03:36:08.255Z,1.67
2018-01-10T03:38:50.955Z,1.67
2018-01-10T03:41:33.263Z,1.10
2018-01-10T03:44:16.101Z,1.63
2018-01-10T03:46:58.616Z,1.20
2018-01-10T03:49:40.781Z,1.30
2018-01-10T03:52:23.624Z,1.20
2018-01-10T03:55:06.865Z,1.20
2018-01-10T03:57:49.686Z,1.10
2018-01-10T04:00:32.298Z,1.30
2018-01-10T04:03:14.861Z,1.20
2018-01-10T04:06:04.214Z,1.10
2018-01-10T04:08:48.794Z,1.17
2018-01-10T04:11:37.633Z,1.40
2018-01-10T04:14:21.087Z,1.23
2018-01-10T04:17:04.096Z,1.20
2018-01-10T04:19:46.708Z,1.10
2018-01-10T04:22:29.320Z,1.73
2018-01-10T04:25:24.250Z,1.10
2018-01-10T04:28:06.598Z,1.40
2018-01-10T04:30:49.298Z,1.60
2018-01-10T04:33:31.997Z,1.10
2018-01-10T04:36:14.388Z,1.30
2018-01-10T04:38:56.971Z,1.10
2018-01-10T04:41:41.731Z,1.20
2018-01-10T04:44:24.059Z,1.30
2018-01-10T04:47:14.572Z,1.20
2018-01-10T04:49:57.715Z,1.30
2018-01-10T04:52:41.817Z,1.30
2018-01-10T04:55:24.521Z,1.60
2018-01-10T04:58:07.155Z,1.30
2018-01-10T05:00:51.014Z,1.00
2018-01-10T05:03:33.596Z,1.10
2018-01-10T05:06:16.242Z,1.10
2018-01-10T05:08:58.753Z,1.47
2018-01-10T05:11:41.366Z,1.47
2018-01-10T05:14:24.068Z,1.23
2018-01-10T05:17:06.682Z,1.40
2018-01-10T05:19:49.367Z,1.37
2018-01-10T05:22:32.014Z,1.20
2018-01-10T05:25:15.347Z,3.80
2018-01-10T05:27:58.163Z,1.57
2018-01-10T05:30:40.688Z,1.17
2018-01-10T05:33:23.229Z,1.50
2018-01-10T05:36:05.848Z,1.50
2018-01-10T05:38:48.394Z,1.40
2018-01-10T05:41:35.913Z,1.50
2018-01-10T05:44:18.730Z,1.57
2018-01-10T05:47:01.234Z,1.30
2018-01-10T05:49:46.596Z,1.40
2018-01-10T05:52:29.481Z,1.97
2018-01-10T05:55:12.174Z,1.20
2018-01-10T05:57:54.974Z,1.67
2018-01-10T06:00:37.386Z,1.50
2018-01-10T06:03:19.958Z,1.50
2018-01-10T06:06:02.592Z,1.47
2018-01-10T06:08:45.436Z,1.93
2018-01-10T06:11:29.308Z,1.87
2018-01-10T06:14:11.524Z,1.60
2018-01-10T06:16:54.270Z,1.67
2018-01-10T06:19:36.768Z,1.53
2018-01-10T06:22:19.487Z,1.47
2018-01-10T06:25:02.931Z,1.70
2018-01-10T06:27:47.203Z,1.60
2018-01-10T06:30:31.840Z,1.40
2018-01-10T06:33:14.677Z,1.77
2018-01-10T06:35:57.183Z,1.40
2018-01-10T06:38:46.906Z,1.70
2018-01-10T06:41:30.514Z,1.50
2018-01-10T06:44:13.070Z,1.20
2018-01-10T06:46:57.041Z,1.30
2018-01-10T06:49:40.051Z,1.67
2018-01-10T06:52:22.443Z,1.37
2018-01-10T06:55:05.013Z,1.30
2018-01-10T06:57:47.640Z,1.73
2018-01-10T07:00:30.131Z,1.63
2018-01-10T07:03:12.798Z,1.67
2018-01-10T07:05:55.689Z,1.60
2018-01-10T07:08:38.244Z,1.77
2018-01-10T07:11:20.860Z,2.27
2018-01-10T07:14:07.027Z,2.27
2018-01-10T07:16:50.019Z,1.60
2018-01-10T07:19:32.734Z,2.10
2018-01-10T07:22:18.094Z,2.13
2018-01-10T07:25:01.346Z,2.47
2018-01-10T07:27:43.733Z,2.40
2018-01-10T07:30:35.027Z,2.20
2018-01-10T07:33:31.738Z,2.10
2018-01-10T07:36:14.522Z,1.73
2018-01-10T07:38:57.403Z,2.00
2018-01-10T07:41:40.018Z,2.20
2018-01-10T07:44:22.702Z,2.97
2018-01-10T07:47:05.555Z,2.17
2018-01-10T07:49:48.115Z,3.60
2018-01-10T07:52:31.848Z,2.83
2018-01-10T07:55:14.177Z,2.83
2018-01-10T07:57:56.718Z,2.10
2018-01-10T08:00:39.465Z,2.03
2018-01-10T08:03:22.370Z,2.07
2018-01-10T08:06:04.667Z,1.83
2018-01-10T08:08:47.464Z,1.80
2018-01-10T08:11:30.975Z,1.83
2018-01-10T08:14:14.022Z,2.20
2018-01-10T08:16:58.038Z,2.60
2018-01-10T08:19:40.885Z,2.97
2018-01-10T08:22:29.439Z,5.03
2018-01-10T08:25:11.986Z,2.07
2018-01-10T08:27:54.622Z,2.00
2018-01-10T08:30:37.317Z,2.17
2018-01-10T08:33:20.095Z,2.30
2018-01-10T08:36:08.751Z,3.20
2018-01-10T08:38:51.258Z,4.60
2018-01-10T08:41:34.297Z,3.43
2018-01-10T08:44:16.486Z,2.60
2018-01-10T08:46:59.259Z,3.50
2018-01-10T08:49:41.753Z,4.97
2018-01-10T08:52:24.273Z,3.80
2018-01-10T08:55:06.764Z,3.00
2018-01-10T08:58:03.131Z,2.83
2018-01-10T09:00:46.239Z,3.30
2018-01-10T09:03:29.995Z,2.77
2018-01-10T09:06:12.906Z,2.47
2018-01-10T09:08:55.076Z,2.90
2018-01-10T09:11:44.359Z,2.57
2018-01-10T09:14:27.195Z,2.00
2018-01-10T09:17:09.982Z,2.30
2018-01-10T09:19:54.609Z,4.17
2018-01-10T09:22:37.279Z,3.27
2018-01-10T09:25:22.367Z,5.20
2018-01-10T09:28:04.507Z,4.10
2018-01-10T09:30:48.295Z,4.07
2018-01-10T09:33:30.961Z,4.30
2018-01-10T09:36:13.459Z,4.23
2018-01-10T09:38:56.889Z,3.40
2018-01-10T09:41:39.747Z,2.80
2018-01-10T09:44:28.626Z,2.73
2018-01-10T09:47:11.196Z,2.90
2018-01-10T09:49:55.016Z,2.77
2018-01-10T09:52:40.822Z,2.53
2018-01-10T09:55:23.378Z,2.40
2018-01-10T09:58:15.262Z,2.50
2018-01-10T10:00:57.964Z,2.70
2018-01-10T10:03:40.438Z,3.57
2018-01-10T10:06:30.165Z,3.03
2018-01-10T10:09:17.413Z,3.20
2018-01-10T10:12:00.132Z,2.97
2018-01-10T10:14:50.466Z,2.60
2018-01-10T10:17:33.434Z,3.10
2018-01-10T10:20:29.414Z,3.17
2018-01-10T10:23:11.635Z,3.23
2018-01-10T10:25:54.381Z,2.80
2018-01-10T10:28:36.846Z,5.50
2018-01-10T10:31:19.339Z,5.90
2018-01-10T10:34:06.179Z,4.53
2018-01-10T10:36:48.508Z,3.70
2018-01-10T10:39:31.075Z,2.93
2018-01-10T10:42:13.893Z,8.07
2018-01-10T10:44:56.358Z,7.73
2018-01-10T10:47:40.911Z,5.10
2018-01-10T10:50:37.019Z,3.30
2018-01-10T10:53:25.256Z,3.10
2018-01-10T10:56:08.220Z,3.57
2018-01-10T10:58:50.815Z,4.83
2018-01-10T11:01:33.939Z,3.20
2018-01-10T11:04:16.141Z,3.23
2018-01-10T11:06:58.675Z,2.87
2018-01-10T11:09:41.383Z,2.83
2018-01-10T11:12:25.172Z,3.17
2018-01-10T11:15:21.192Z,3.73
2018-01-10T11:18:03.961Z,3.60
2018-01-10T11:20:46.798Z,4.17
2018-01-10T11:23:29.442Z,5.40
2018-01-10T11:26:12.223Z,4.30
2018-01-10T11:28:54.690Z,4.40
2018-01-10T11:31:37.594Z,4.30
2018-01-10T11:34:19.984Z,4.23
2018-01-10T11:37:02.802Z,3.90
2018-01-10T11:39:50.483Z,3.53
2018-01-10T11:42:33.654Z,3.67
2018-01-10T11:45:23.322Z,4.40
2018-01-10T11:48:06.098Z,3.77
2018-01-10T11:50:48.405Z,3.83
2018-01-10T11:53:30.944Z,4.20
2018-01-10T11:56:13.528Z,3.93
2018-01-10T11:58:56.078Z,3.70
2018-01-10T12:01:38.594Z,3.93
2018-01-10T12:04:21.270Z,5.00
2018-01-10T12:07:03.911Z,11.00
2018-01-10T12:09:46.522Z,4.40
2018-01-10T12:12:29.201Z,3.10
2018-01-10T12:15:11.800Z,4.50
2018-01-10T12:17:54.426Z,4.17
2018-01-10T12:20:36.923Z,3.93
2018-01-10T12:23:19.621Z,3.10
2018-01-10T12:26:02.529Z,3.23
2018-01-10T12:28:44.985Z,3.20
2018-01-10T12:31:27.414Z,2.10
2018-01-10T12:34:10.073Z,2.40
2018-01-10T12:36:52.478Z,2.37
2018-01-10T12:39:35.097Z,2.10
2018-01-10T12:42:17.669Z,2.50
2018-01-10T12:45:00.336Z,2.20
2018-01-10T12:47:43.774Z,2.80
2018-01-10T12:50:38.762Z,2.60
2018-01-10T12:53:21.369Z,2.87
2018-01-10T12:56:04.770Z,2.70
2018-01-10T12:58:55.350Z,3.00
2018-01-10T13:01:38.316Z,3.13
2018-01-10T13:04:24.770Z,2.60
2018-01-10T13:07:07.594Z,2.90
2018-01-10T13:09:50.069Z,2.80
2018-01-10T13:12:32.725Z,3.37
2018-01-10T13:15:15.229Z,2.57
2018-01-10T13:17:57.827Z,3.47
2018-01-10T13:20:40.623Z,3.20
2018-01-10T13:23:23.031Z,2.73
2018-01-10T13:26:05.857Z,3.37
2018-01-10T13:28:48.410Z,3.17
2018-01-10T13:31:31.209Z,3.50
2018-01-10T13:34:26.877Z,3.50
2018-01-10T13:37:09.206Z,4.57
2018-01-10T13:39:51.343Z,3.40
2018-01-10T13:42:41.634Z,3.83
2018-01-10T13:45:24.597Z,2.93
2018-01-10T13:48:07.216Z,3.80
2018-01-10T13:50:49.715Z,3.83
2018-01-10T13:53:33.182Z,3.80
2018-01-10T13:56:15.998Z,3.23
2018-01-10T13:58:58.717Z,3.20
2018-01-10T14:01:44.252Z,2.77
2018-01-10T14:04:27.186Z,3.43
2018-01-10T14:07:09.884Z,2.67
2018-01-10T14:09:52.363Z,2.90
2018-01-10T14:12:34.979Z,2.80
2018-01-10T14:15:17.541Z,3.30
2018-01-10T14:18:00.528Z,3.43
2018-01-10T14:20:42.718Z,2.90
2018-01-10T14:23:31.415Z,2.77
2018-01-10T14:26:14.088Z,3.17
2018-01-10T14:29:11.822Z,3.80
2018-01-10T14:31:54.382Z,3.17
2018-01-10T14:34:36.957Z,3.70
2018-01-10T14:37:19.466Z,3.97
2018-01-10T14:40:02.140Z,3.97
2018-01-10T14:42:51.273Z,3.40
2018-01-10T14:45:33.691Z,3.90
2018-01-10T14:48:16.246Z,3.93
2018-01-10T14:50:59.347Z,2.77
2018-01-10T14:53:42.326Z,2.60
2018-01-10T14:56:25.102Z,3.10
2018-01-10T14:59:08.576Z,2.20
2018-01-10T15:01:51.002Z,2.03
2018-01-10T15:04:37.675Z,1.77
2018-01-10T15:07:20.138Z,1.40
2018-01-10T15:10:03.063Z,1.43
2018-01-10T15:12:51.347Z,1.50
2018-01-10T15:15:36.003Z,1.50
2018-01-10T15:18:19.031Z,1.37
2018-01-10T15:21:01.623Z,1.30
2018-01-10T15:23:50.662Z,1.47
2018-01-10T15:26:32.821Z,1.27
2018-01-10T15:29:15.213Z,1.53
2018-01-10T15:31:57.974Z,1.77
2018-01-10T15:34:40.682Z,1.57
2018-01-10T15:37:23.262Z,1.50
2018-01-10T15:40:06.064Z,1.60
2018-01-10T15:42:48.746Z,1.40
2018-01-10T15:45:31.414Z,1.20
2018-01-10T15:48:13.986Z,1.70
2018-01-10T15:50:56.582Z,1.40
2018-01-10T15:53:39.242Z,1.60
2018-01-10T15:56:22.110Z,1.70
2018-01-10T15:59:05.404Z,1.70
2018-01-10T16:01:48.967Z,1.80
2018-01-10T16:04:32.601Z,1.50
2018-01-10T16:07:15.510Z,1.40
2018-01-10T16:10:04.209Z,1.77
2018-01-10T16:12:46.814Z,1.30
2018-01-10T16:15:29.399Z,1.30
2018-01-10T16:18:11.923Z,1.80
2018-01-10T16:20:54.767Z,1.40
2018-01-10T16:23:37.324Z,1.30
2018-01-10T16:26:20.088Z,1.40
2018-01-10T16:29:02.495Z,1.60
2018-01-10T16:31:44.909Z,1.40
2018-01-10T16:34:35.559Z,2.83
2018-01-10T16:37:18.399Z,1.60
2018-01-10T16:40:01.076Z,2.10
2018-01-10T16:42:43.599Z,1.50
2018-01-10T16:45:33.056Z,1.80
2018-01-10T16:48:16.106Z,2.20
2018-01-10T16:50:58.352Z,2.50
2018-01-10T16:53:47.051Z,2.03
2018-01-10T16:56:29.530Z,2.43
2018-01-10T16:59:12.178Z,2.00
2018-01-10T17:01:54.857Z,1.53
2018-01-10T17:04:37.686Z,1.63
2018-01-10T17:07:20.069Z,1.73
2018-01-10T17:10:02.869Z,1.97
2018-01-10T17:12:45.456Z,1.60
2018-01-10T17:15:28.007Z,1.80
2018-01-10T17:18:10.398Z,2.43
2018-01-10T17:20:52.927Z,2.30
2018-01-10T17:23:35.634Z,2.50
2018-01-10T17:26:18.151Z,1.60
2018-01-10T17:29:00.990Z,1.63
2018-01-10T17:31:43.438Z,1.73
2018-01-10T17:34:26.088Z,1.90
2018-01-10T17:37:09.646Z,2.10
2018-01-10T17:39:52.176Z,2.50
2018-01-10T17:42:35.891Z,2.60
2018-01-10T17:45:18.406Z,2.00
2018-01-10T17:48:01.083Z,2.13
2018-01-10T17:50:43.842Z,2.10
2018-01-10T17:53:26.956Z,2.27
2018-01-10T17:56:11.375Z,2.03
2018-01-10T17:58:54.216Z,2.40
2018-01-10T18:01:37.203Z,2.50
2018-01-10T18:04:19.439Z,2.10
2018-01-10T18:07:15.247Z,2.43
2018-01-10T18:09:57.814Z,2.67
2018-01-10T18:12:40.379Z,2.40
2018-01-10T18:15:22.878Z,2.53
2018-01-10T18:18:05.748Z,2.60
2018-01-10T18:20:48.664Z,2.43
2018-01-10T18:23:31.192Z,2.07
2018-01-10T18:26:13.770Z,2.10
2018-01-10T18:28:56.512Z,2.70
2018-01-10T18:31:39.220Z,2.37
2018-01-10T18:34:25.619Z,3.40
2018-01-10T18:37:08.520Z,2.83
2018-01-10T18:39:51.010Z,2.80
2018-01-10T18:42:33.698Z,4.33
2018-01-10T18:45:17.890Z,3.80
2018-01-10T18:48:00.771Z,2.87
2018-01-10T18:50:43.328Z,2.63
2018-01-10T18:53:26.053Z,2.70
2018-01-10T18:56:08.614Z,3.77
2018-01-10T18:58:52.166Z,2.90
2018-01-10T19:01:42.514Z,2.70
2018-01-10T19:04:25.649Z,2.40
2018-01-10T19:07:08.300Z,2.40
2018-01-10T19:09:50.924Z,2.83
2018-01-10T19:12:33.854Z,2.37
2018-01-10T19:15:16.333Z,2.17
2018-01-10T19:17:58.935Z,2.40
2018-01-10T19:20:42.906Z,2.27
2018-01-10T19:23:26.073Z,4.30
2018-01-10T19:26:09.447Z,2.47
2018-01-10T19:28:52.655Z,2.23
2018-01-10T19:31:35.585Z,2.27
2018-01-10T19:34:18.256Z,1.90
2018-01-10T19:37:01.275Z,3.07
2018-01-10T19:39:43.943Z,2.50
2018-01-10T19:42:26.687Z,2.73
2018-01-10T19:45:09.369Z,2.20
2018-01-10T19:47:52.025Z,2.40
2018-01-10T19:50:35.442Z,2.50
2018-01-10T19:53:18.191Z,2.27
2018-01-10T19:56:01.553Z,2.00
2018-01-10T19:58:43.685Z,2.37
2018-01-10T20:01:26.571Z,2.73
2018-01-10T20:04:09.070Z,2.07
2018-01-10T20:06:51.560Z,2.10
2018-01-10T20:09:34.174Z,2.43
2018-01-10T20:12:16.726Z,3.00
2018-01-10T20:15:01.174Z,2.17
2018-01-10T20:17:51.207Z,2.30
2018-01-10T20:20:40.713Z,2.60
2018-01-10T20:23:23.331Z,2.70
2018-01-10T20:26:06.001Z,2.30
2018-01-10T20:28:48.514Z,3.17
2018-01-10T20:31:30.633Z,2.90
2018-01-10T20:34:13.247Z,2.40
2018-01-10T20:36:56.751Z,2.90
2018-01-10T20:39:39.789Z,2.40
2018-01-10T20:42:36.493Z,3.10
2018-01-10T20:45:19.267Z,3.13
2018-01-10T20:48:02.032Z,2.60
2018-01-10T20:50:44.608Z,2.50
2018-01-10T20:53:27.480Z,2.30
2018-01-10T20:56:10.842Z,2.43
2018-01-10T20:58:53.343Z,2.50
2018-01-10T21:01:36.775Z,2.23
2018-01-10T21:04:21.986Z,2.70
2018-01-10T21:07:04.240Z,2.00
2018-01-10T21:09:46.970Z,2.50
2018-01-10T21:12:30.636Z,2.20
2018-01-10T21:15:13.331Z,2.87
2018-01-10T21:17:56.695Z,3.17
2018-01-10T21:20:47.307Z,2.27
2018-01-10T21:23:30.423Z,2.17
2018-01-10T21:26:12.837Z,2.30
2018-01-10T21:28:55.264Z,2.00
2018-01-10T21:31:37.761Z,2.30
2018-01-10T21:34:20.525Z,2.00
2018-01-10T21:37:03.340Z,2.20
2018-01-10T21:39:50.711Z,2.33
2018-01-10T21:42:33.275Z,2.20
2018-01-10T21:45:18.665Z,2.40
2018-01-10T21:48:01.531Z,3.20
2018-01-10T21:50:57.245Z,2.63
2018-01-10T21:53:40.815Z,2.50
2018-01-10T21:56:23.470Z,2.70
2018-01-10T21:59:06.128Z,3.30
2018-01-10T22:01:48.714Z,2.70
2018-01-10T22:04:31.372Z,2.10
2018-01-10T22:07:14.186Z,2.00
2018-01-10T22:09:57.500Z,2.27
2018-01-10T22:12:40.110Z,2.17
2018-01-10T22:15:22.838Z,2.00
2018-01-10T22:18:05.555Z,2.30
2018-01-10T22:20:58.350Z,2.70
2018-01-10T22:23:47.867Z,2.27
2018-01-10T22:26:30.377Z,2.30
2018-01-10T22:29:12.929Z,2.40
2018-01-10T22:31:56.356Z,2.77
2018-01-10T22:34:39.352Z,2.40
2018-01-10T22:37:23.234Z,2.70
2018-01-10T22:40:06.286Z,2.10
2018-01-10T22:42:49.803Z,2.60
2018-01-10T22:45:32.512Z,2.40
2018-01-10T22:48:16.090Z,3.40
2018-01-10T22:50:58.713Z,2.67
2018-01-10T22:53:41.411Z,1.83
2018-01-10T22:56:24.096Z,1.90
2018-01-10T22:59:06.632Z,1.93
2018-01-10T23:01:49.385Z,2.77
2018-01-10T23:04:31.892Z,2.13
2018-01-10T23:07:14.673Z,2.40
2018-01-10T23:09:56.934Z,3.10
2018-01-10T23:12:39.629Z,2.03
2018-01-10T23:15:23.167Z,2.07
2018-01-10T23:18:05.985Z,1.90
2018-01-10T23:20:48.718Z,2.23
2018-01-10T23:23:31.466Z,1.93
2018-01-10T23:26:14.057Z,2.13
2018-01-10T23:28:56.845Z,2.30
2018-01-10T23:31:39.480Z,2.47
2018-01-10T23:34:28.367Z,2.37
2018-01-10T23:37:11.434Z,1.90
2018-01-10T23:39:54.228Z,2.30
2018-01-10T23:42:36.967Z,2.00
2018-01-10T23:45:22.321Z,2.50
2018-01-10T23:48:05.165Z,2.33
2018-01-10T23:50:47.713Z,2.63
2018-01-10T23:53:30.409Z,2.30
2018-01-10T23:56:12.924Z,2.03
2018-01-10T23:58:56.266Z,2.30
